sensor_id;sensor_type;location;lat;lon;timestamp;temperature;humidity
23283;DHT22;11810;51.178;3.878;2023-06-26T00:01:27;21.80;99.90
23283;DHT22;11810;51.178;3.878;2023-06-26T00:04:00;22.00;99.90
23283;DHT22;11810;51.178;3.878;2023-06-26T00:06:26;22.00;99.90
23283;DHT22;11810;51.178;3.878;2023-06-26T00:08:55;21.90;99.90
23283;DHT22;11810;51.178;3.878;2023-06-26T00:11:22;21.90;99.90
23283;DHT22;11810;51.178;3.878;2023-06-26T00:13:48;21.90;99.90
23283;DHT22;11810;51.178;3.878;2023-06-26T00:16:14;21.80;99.90
23283;DHT22;11810;51.178;3.878;2023-06-26T00:18:40;21.80;99.90
23283;DHT22;11810;51.178;3.878;2023-06-26T00:21:06;21.60;99.90
23283;DHT22;11810;51.178;3.878;2023-06-26T00:23:32;21.60;99.90
23283;DHT22;11810;51.178;3.878;2023-06-26T00:25:58;21.50;99.90
23283;DHT22;11810;51.178;3.878;2023-06-26T00:28:24;21.50;99.90
23283;DHT22;11810;51.178;3.878;2023-06-26T00:30:50;21.40;99.90
23283;DHT22;11810;51.178;3.878;2023-06-26T00:33:16;21.40;99.90
23283;DHT22;11810;51.178;3.878;2023-06-26T00:35:42;21.40;99.90
23283;DHT22;11810;51.178;3.878;2023-06-26T00:38:08;21.40;99.90
23283;DHT22;11810;51.178;3.878;2023-06-26T00:40:34;21.40;99.90
23283;DHT22;11810;51.178;3.878;2023-06-26T00:43:00;21.40;99.90
23283;DHT22;11810;51.178;3.878;2023-06-26T00:45:26;21.40;99.90
23283;DHT22;11810;51.178;3.878;2023-06-26T00:47:52;21.40;99.90
23283;DHT22;11810;51.178;3.878;2023-06-26T00:50:18;21.30;99.90
23283;DHT22;11810;51.178;3.878;2023-06-26T00:52:44;21.40;99.90
23283;DHT22;11810;51.178;3.878;2023-06-26T00:55:10;21.30;99.90
23283;DHT22;11810;51.178;3.878;2023-06-26T00:57:36;21.30;99.90
23283;DHT22;11810;51.178;3.878;2023-06-26T01:00:03;21.20;99.90
23283;DHT22;11810;51.178;3.878;2023-06-26T01:02:30;21.10;99.90
23283;DHT22;11810;51.178;3.878;2023-06-26T01:05:00;21.20;99.90
23283;DHT22;11810;51.178;3.878;2023-06-26T01:07:29;21.10;99.90
23283;DHT22;11810;51.178;3.878;2023-06-26T01:09:58;21.20;99.90
23283;DHT22;11810;51.178;3.878;2023-06-26T01:12:24;21.20;99.90
23283;DHT22;11810;51.178;3.878;2023-06-26T01:14:50;21.00;99.90
23283;DHT22;11810;51.178;3.878;2023-06-26T01:17:16;20.90;99.90
23283;DHT22;11810;51.178;3.878;2023-06-26T01:19:43;20.80;99.90
23283;DHT22;11810;51.178;3.878;2023-06-26T01:25:23;20.90;99.90
23283;DHT22;11810;51.178;3.878;2023-06-26T01:27:55;20.90;99.90
23283;DHT22;11810;51.178;3.878;2023-06-26T01:30:21;20.90;99.90
23283;DHT22;11810;51.178;3.878;2023-06-26T01:32:48;20.90;99.90
23283;DHT22;11810;51.178;3.878;2023-06-26T01:35:15;21.00;99.90
23283;DHT22;11810;51.178;3.878;2023-06-26T01:37:41;21.10;99.90
23283;DHT22;11810;51.178;3.878;2023-06-26T01:40:08;21.00;99.90
23283;DHT22;11810;51.178;3.878;2023-06-26T01:42:35;21.10;99.90
23283;DHT22;11810;51.178;3.878;2023-06-26T01:45:13;21.00;99.90
23283;DHT22;11810;51.178;3.878;2023-06-26T01:47:45;21.00;99.90
23283;DHT22;11810;51.178;3.878;2023-06-26T01:50:18;20.80;99.90
23283;DHT22;11810;51.178;3.878;2023-06-26T01:53:02;20.80;99.90
23283;DHT22;11810;51.178;3.878;2023-06-26T01:57:59;20.50;99.90
23283;DHT22;11810;51.178;3.878;2023-06-26T02:00:25;20.50;99.90
23283;DHT22;11810;51.178;3.878;2023-06-26T02:02:52;20.30;99.90
23283;DHT22;11810;51.178;3.878;2023-06-26T02:05:18;20.20;99.90
23283;DHT22;11810;51.178;3.878;2023-06-26T02:07:44;20.10;99.90
23283;DHT22;11810;51.178;3.878;2023-06-26T02:10:10;20.00;99.90
23283;DHT22;11810;51.178;3.878;2023-06-26T02:12:37;20.10;99.90
23283;DHT22;11810;51.178;3.878;2023-06-26T02:15:03;20.00;99.90
23283;DHT22;11810;51.178;3.878;2023-06-26T02:17:30;19.90;99.90
23283;DHT22;11810;51.178;3.878;2023-06-26T02:19:56;19.80;99.90
23283;DHT22;11810;51.178;3.878;2023-06-26T02:22:22;19.90;99.90
23283;DHT22;11810;51.178;3.878;2023-06-26T02:24:48;19.80;99.90
23283;DHT22;11810;51.178;3.878;2023-06-26T02:27:14;19.80;99.90
23283;DHT22;11810;51.178;3.878;2023-06-26T02:29:41;19.60;99.90
23283;DHT22;11810;51.178;3.878;2023-06-26T02:32:08;19.70;99.90
23283;DHT22;11810;51.178;3.878;2023-06-26T02:34:34;19.70;99.90
23283;DHT22;11810;51.178;3.878;2023-06-26T02:37:00;19.70;99.90
23283;DHT22;11810;51.178;3.878;2023-06-26T02:39:27;19.50;99.90
23283;DHT22;11810;51.178;3.878;2023-06-26T02:41:53;19.50;99.90
23283;DHT22;11810;51.178;3.878;2023-06-26T02:44:19;19.40;99.90
23283;DHT22;11810;51.178;3.878;2023-06-26T02:46:45;19.30;99.90
23283;DHT22;11810;51.178;3.878;2023-06-26T02:49:11;19.20;99.90
23283;DHT22;11810;51.178;3.878;2023-06-26T02:51:37;19.10;99.90
23283;DHT22;11810;51.178;3.878;2023-06-26T02:54:03;19.20;99.90
23283;DHT22;11810;51.178;3.878;2023-06-26T02:56:29;19.20;99.90
23283;DHT22;11810;51.178;3.878;2023-06-26T02:58:58;19.10;99.90
23283;DHT22;11810;51.178;3.878;2023-06-26T03:01:24;19.00;99.90
23283;DHT22;11810;51.178;3.878;2023-06-26T03:03:50;19.20;99.90
23283;DHT22;11810;51.178;3.878;2023-06-26T03:06:17;19.00;99.90
23283;DHT22;11810;51.178;3.878;2023-06-26T03:08:43;18.90;99.90
23283;DHT22;11810;51.178;3.878;2023-06-26T03:11:09;18.90;99.90
23283;DHT22;11810;51.178;3.878;2023-06-26T03:13:36;18.90;99.90
23283;DHT22;11810;51.178;3.878;2023-06-26T03:16:03;18.90;99.90
23283;DHT22;11810;51.178;3.878;2023-06-26T03:18:29;18.90;99.90
23283;DHT22;11810;51.178;3.878;2023-06-26T03:20:55;18.90;99.90
23283;DHT22;11810;51.178;3.878;2023-06-26T03:23:22;18.90;99.90
23283;DHT22;11810;51.178;3.878;2023-06-26T03:25:49;18.80;99.90
23283;DHT22;11810;51.178;3.878;2023-06-26T03:28:15;18.70;99.90
23283;DHT22;11810;51.178;3.878;2023-06-26T03:30:42;18.70;99.90
23283;DHT22;11810;51.178;3.878;2023-06-26T03:33:08;18.60;99.90
23283;DHT22;11810;51.178;3.878;2023-06-26T03:35:33;18.60;99.90
23283;DHT22;11810;51.178;3.878;2023-06-26T03:38:00;18.60;99.90
23283;DHT22;11810;51.178;3.878;2023-06-26T03:40:26;18.50;99.90
23283;DHT22;11810;51.178;3.878;2023-06-26T03:42:52;18.50;99.90
23283;DHT22;11810;51.178;3.878;2023-06-26T03:45:18;18.40;99.90
23283;DHT22;11810;51.178;3.878;2023-06-26T03:47:46;18.40;99.90
23283;DHT22;11810;51.178;3.878;2023-06-26T03:50:19;18.40;99.90
23283;DHT22;11810;51.178;3.878;2023-06-26T03:52:45;18.40;99.90
23283;DHT22;11810;51.178;3.878;2023-06-26T03:55:12;18.30;99.90
23283;DHT22;11810;51.178;3.878;2023-06-26T03:57:38;18.30;99.90
23283;DHT22;11810;51.178;3.878;2023-06-26T04:00:04;18.30;99.90
23283;DHT22;11810;51.178;3.878;2023-06-26T04:02:34;18.30;99.90
23283;DHT22;11810;51.178;3.878;2023-06-26T04:05:00;18.40;99.90
23283;DHT22;11810;51.178;3.878;2023-06-26T04:07:26;18.30;99.90
23283;DHT22;11810;51.178;3.878;2023-06-26T04:09:52;18.20;99.90
23283;DHT22;11810;51.178;3.878;2023-06-26T04:12:18;18.20;99.90
23283;DHT22;11810;51.178;3.878;2023-06-26T04:14:44;18.30;99.90
23283;DHT22;11810;51.178;3.878;2023-06-26T04:17:10;18.20;99.90
23283;DHT22;11810;51.178;3.878;2023-06-26T04:19:36;18.20;99.90
23283;DHT22;11810;51.178;3.878;2023-06-26T04:22:02;18.30;99.90
23283;DHT22;11810;51.178;3.878;2023-06-26T04:24:28;18.40;99.90
23283;DHT22;11810;51.178;3.878;2023-06-26T04:26:54;18.40;99.90
23283;DHT22;11810;51.178;3.878;2023-06-26T04:29:23;18.40;99.90
23283;DHT22;11810;51.178;3.878;2023-06-26T04:31:53;18.30;99.90
23283;DHT22;11810;51.178;3.878;2023-06-26T04:34:29;18.30;99.90
23283;DHT22;11810;51.178;3.878;2023-06-26T04:37:00;18.10;99.90
23283;DHT22;11810;51.178;3.878;2023-06-26T04:39:29;18.10;99.90
23283;DHT22;11810;51.178;3.878;2023-06-26T04:41:56;18.30;99.90
23283;DHT22;11810;51.178;3.878;2023-06-26T04:44:22;18.30;99.90
23283;DHT22;11810;51.178;3.878;2023-06-26T04:46:47;18.30;99.90
23283;DHT22;11810;51.178;3.878;2023-06-26T04:49:17;18.30;99.90
23283;DHT22;11810;51.178;3.878;2023-06-26T04:51:44;18.30;99.90
23283;DHT22;11810;51.178;3.878;2023-06-26T04:54:10;18.30;99.90
23283;DHT22;11810;51.178;3.878;2023-06-26T04:56:37;18.40;99.90
23283;DHT22;11810;51.178;3.878;2023-06-26T04:59:05;18.60;99.90
23283;DHT22;11810;51.178;3.878;2023-06-26T05:01:31;18.60;99.90
23283;DHT22;11810;51.178;3.878;2023-06-26T05:03:58;18.70;99.90
23283;DHT22;11810;51.178;3.878;2023-06-26T05:06:24;18.70;99.90
23283;DHT22;11810;51.178;3.878;2023-06-26T05:08:50;18.70;99.90
23283;DHT22;11810;51.178;3.878;2023-06-26T05:11:16;18.80;99.90
23283;DHT22;11810;51.178;3.878;2023-06-26T05:13:42;18.90;99.90
23283;DHT22;11810;51.178;3.878;2023-06-26T05:16:09;19.10;99.90
23283;DHT22;11810;51.178;3.878;2023-06-26T05:18:35;19.30;99.90
23283;DHT22;11810;51.178;3.878;2023-06-26T05:21:02;19.40;99.90
23283;DHT22;11810;51.178;3.878;2023-06-26T05:23:31;19.60;99.90
23283;DHT22;11810;51.178;3.878;2023-06-26T05:25:57;19.70;99.90
23283;DHT22;11810;51.178;3.878;2023-06-26T05:28:27;19.60;99.90
23283;DHT22;11810;51.178;3.878;2023-06-26T05:30:54;19.90;99.90
23283;DHT22;11810;51.178;3.878;2023-06-26T05:33:23;20.10;99.90
23283;DHT22;11810;51.178;3.878;2023-06-26T05:35:52;20.40;99.90
23283;DHT22;11810;51.178;3.878;2023-06-26T05:38:18;20.40;99.90
23283;DHT22;11810;51.178;3.878;2023-06-26T05:40:45;20.40;99.90
23283;DHT22;11810;51.178;3.878;2023-06-26T05:43:11;20.50;99.90
23283;DHT22;11810;51.178;3.878;2023-06-26T05:45:37;20.50;99.90
23283;DHT22;11810;51.178;3.878;2023-06-26T05:48:04;20.70;99.90
23283;DHT22;11810;51.178;3.878;2023-06-26T05:50:30;21.00;99.90
23283;DHT22;11810;51.178;3.878;2023-06-26T05:52:56;21.40;99.90
23283;DHT22;11810;51.178;3.878;2023-06-26T05:55:22;21.70;99.90
23283;DHT22;11810;51.178;3.878;2023-06-26T05:57:50;22.00;99.90
23283;DHT22;11810;51.178;3.878;2023-06-26T06:00:17;22.00;99.90
23283;DHT22;11810;51.178;3.878;2023-06-26T06:02:43;22.10;99.90
23283;DHT22;11810;51.178;3.878;2023-06-26T06:05:09;22.30;99.90
23283;DHT22;11810;51.178;3.878;2023-06-26T06:07:36;22.30;99.90
23283;DHT22;11810;51.178;3.878;2023-06-26T06:10:03;21.90;99.90
23283;DHT22;11810;51.178;3.878;2023-06-26T06:12:29;22.30;99.90
23283;DHT22;11810;51.178;3.878;2023-06-26T06:14:56;22.80;99.90
23283;DHT22;11810;51.178;3.878;2023-06-26T06:17:22;23.00;99.90
23283;DHT22;11810;51.178;3.878;2023-06-26T06:19:48;23.10;99.90
23283;DHT22;11810;51.178;3.878;2023-06-26T06:22:14;23.20;99.90
23283;DHT22;11810;51.178;3.878;2023-06-26T06:24:42;23.40;99.90
23283;DHT22;11810;51.178;3.878;2023-06-26T06:27:08;23.40;99.90
23283;DHT22;11810;51.178;3.878;2023-06-26T06:29:34;24.00;99.90
23283;DHT22;11810;51.178;3.878;2023-06-26T06:32:00;24.30;99.90
23283;DHT22;11810;51.178;3.878;2023-06-26T06:34:26;24.10;99.90
23283;DHT22;11810;51.178;3.878;2023-06-26T06:36:51;24.20;99.90
23283;DHT22;11810;51.178;3.878;2023-06-26T06:39:17;24.30;99.90
23283;DHT22;11810;51.178;3.878;2023-06-26T06:41:43;23.80;99.90
23283;DHT22;11810;51.178;3.878;2023-06-26T06:44:09;23.70;99.90
23283;DHT22;11810;51.178;3.878;2023-06-26T06:46:35;23.90;99.90
23283;DHT22;11810;51.178;3.878;2023-06-26T06:49:01;23.80;99.90
23283;DHT22;11810;51.178;3.878;2023-06-26T06:51:27;24.00;99.90
23283;DHT22;11810;51.178;3.878;2023-06-26T06:53:53;24.00;99.90
23283;DHT22;11810;51.178;3.878;2023-06-26T06:56:19;24.20;99.90
23283;DHT22;11810;51.178;3.878;2023-06-26T06:58:45;24.40;99.90
23283;DHT22;11810;51.178;3.878;2023-06-26T07:01:12;25.10;99.90
23283;DHT22;11810;51.178;3.878;2023-06-26T07:03:38;25.70;99.90
23283;DHT22;11810;51.178;3.878;2023-06-26T07:06:04;25.90;99.90
23283;DHT22;11810;51.178;3.878;2023-06-26T07:08:30;26.20;99.90
23283;DHT22;11810;51.178;3.878;2023-06-26T07:10:56;26.00;99.90
23283;DHT22;11810;51.178;3.878;2023-06-26T07:13:22;25.60;99.90
23283;DHT22;11810;51.178;3.878;2023-06-26T07:15:48;25.90;99.90
23283;DHT22;11810;51.178;3.878;2023-06-26T07:18:14;25.60;99.90
23283;DHT22;11810;51.178;3.878;2023-06-26T07:20:41;26.20;99.90
23283;DHT22;11810;51.178;3.878;2023-06-26T07:23:08;25.70;99.90
23283;DHT22;11810;51.178;3.878;2023-06-26T07:25:34;25.60;99.90
23283;DHT22;11810;51.178;3.878;2023-06-26T07:28:00;26.10;99.90
23283;DHT22;11810;51.178;3.878;2023-06-26T07:30:26;26.70;99.90
23283;DHT22;11810;51.178;3.878;2023-06-26T07:32:52;26.80;99.90
23283;DHT22;11810;51.178;3.878;2023-06-26T07:35:18;26.70;99.90
23283;DHT22;11810;51.178;3.878;2023-06-26T07:37:44;26.30;99.90
23283;DHT22;11810;51.178;3.878;2023-06-26T07:40:10;26.70;99.90
23283;DHT22;11810;51.178;3.878;2023-06-26T07:42:36;26.10;99.90
23283;DHT22;11810;51.178;3.878;2023-06-26T07:45:03;26.60;99.90
23283;DHT22;11810;51.178;3.878;2023-06-26T07:47:36;27.30;99.90
23283;DHT22;11810;51.178;3.878;2023-06-26T07:50:03;27.80;99.90
23283;DHT22;11810;51.178;3.878;2023-06-26T07:52:29;27.80;99.90
23283;DHT22;11810;51.178;3.878;2023-06-26T07:54:56;27.40;99.90
23283;DHT22;11810;51.178;3.878;2023-06-26T07:57:22;27.90;99.90
23283;DHT22;11810;51.178;3.878;2023-06-26T07:59:49;28.40;99.90
23283;DHT22;11810;51.178;3.878;2023-06-26T08:02:16;28.60;99.90
23283;DHT22;11810;51.178;3.878;2023-06-26T08:04:42;27.70;99.90
23283;DHT22;11810;51.178;3.878;2023-06-26T08:07:08;27.50;99.90
23283;DHT22;11810;51.178;3.878;2023-06-26T08:09:35;26.90;99.90
23283;DHT22;11810;51.178;3.878;2023-06-26T08:12:01;27.80;99.90
23283;DHT22;11810;51.178;3.878;2023-06-26T08:14:27;28.40;99.90
23283;DHT22;11810;51.178;3.878;2023-06-26T08:16:53;28.20;99.90
23283;DHT22;11810;51.178;3.878;2023-06-26T08:19:19;28.50;99.90
23283;DHT22;11810;51.178;3.878;2023-06-26T08:21:46;27.80;99.90
23283;DHT22;11810;51.178;3.878;2023-06-26T08:24:13;27.40;99.90
23283;DHT22;11810;51.178;3.878;2023-06-26T08:26:39;28.00;99.90
23283;DHT22;11810;51.178;3.878;2023-06-26T08:29:05;28.40;99.90
23283;DHT22;11810;51.178;3.878;2023-06-26T08:31:34;28.40;99.90
23283;DHT22;11810;51.178;3.878;2023-06-26T08:34:04;28.70;99.90
23283;DHT22;11810;51.178;3.878;2023-06-26T08:36:30;29.40;99.90
23283;DHT22;11810;51.178;3.878;2023-06-26T08:38:57;30.00;99.90
23283;DHT22;11810;51.178;3.878;2023-06-26T08:41:23;29.00;99.90
23283;DHT22;11810;51.178;3.878;2023-06-26T08:43:49;28.80;99.90
23283;DHT22;11810;51.178;3.878;2023-06-26T08:46:18;29.00;99.90
23283;DHT22;11810;51.178;3.878;2023-06-26T08:48:49;29.40;99.90
23283;DHT22;11810;51.178;3.878;2023-06-26T08:51:17;29.50;99.90
23283;DHT22;11810;51.178;3.878;2023-06-26T08:54:00;29.20;99.90
23283;DHT22;11810;51.178;3.878;2023-06-26T08:56:36;28.70;99.90
23283;DHT22;11810;51.178;3.878;2023-06-26T08:59:04;28.40;99.90
23283;DHT22;11810;51.178;3.878;2023-06-26T09:01:32;28.20;99.90
23283;DHT22;11810;51.178;3.878;2023-06-26T09:03:58;28.80;99.90
23283;DHT22;11810;51.178;3.878;2023-06-26T09:06:24;29.50;99.90
23283;DHT22;11810;51.178;3.878;2023-06-26T09:08:50;29.00;99.90
23283;DHT22;11810;51.178;3.878;2023-06-26T09:11:16;28.60;99.90
23283;DHT22;11810;51.178;3.878;2023-06-26T09:13:43;27.80;99.90
23283;DHT22;11810;51.178;3.878;2023-06-26T09:16:10;26.70;99.90
23283;DHT22;11810;51.178;3.878;2023-06-26T09:18:36;27.30;99.90
23283;DHT22;11810;51.178;3.878;2023-06-26T09:21:09;27.90;99.90
23283;DHT22;11810;51.178;3.878;2023-06-26T09:23:35;28.10;99.90
23283;DHT22;11810;51.178;3.878;2023-06-26T09:26:06;28.30;99.90
23283;DHT22;11810;51.178;3.878;2023-06-26T09:28:32;28.60;99.90
23283;DHT22;11810;51.178;3.878;2023-06-26T09:31:06;29.40;99.90
23283;DHT22;11810;51.178;3.878;2023-06-26T09:33:36;30.40;99.90
23283;DHT22;11810;51.178;3.878;2023-06-26T09:36:05;28.90;99.90
23283;DHT22;11810;51.178;3.878;2023-06-26T09:38:31;28.50;99.90
23283;DHT22;11810;51.178;3.878;2023-06-26T09:40:57;28.80;99.90
23283;DHT22;11810;51.178;3.878;2023-06-26T09:43:23;29.50;99.90
23283;DHT22;11810;51.178;3.878;2023-06-26T09:45:49;29.60;99.90
23283;DHT22;11810;51.178;3.878;2023-06-26T09:48:15;28.50;99.90
23283;DHT22;11810;51.178;3.878;2023-06-26T09:50:43;27.40;99.90
23283;DHT22;11810;51.178;3.878;2023-06-26T09:53:10;26.70;99.90
23283;DHT22;11810;51.178;3.878;2023-06-26T09:55:37;27.20;99.90
23283;DHT22;11810;51.178;3.878;2023-06-26T09:58:03;27.70;99.90
23283;DHT22;11810;51.178;3.878;2023-06-26T10:00:31;26.60;99.90
23283;DHT22;11810;51.178;3.878;2023-06-26T10:02:58;26.30;99.90
23283;DHT22;11810;51.178;3.878;2023-06-26T10:05:24;26.40;99.90
23283;DHT22;11810;51.178;3.878;2023-06-26T10:07:50;26.00;99.90
23283;DHT22;11810;51.178;3.878;2023-06-26T10:10:16;27.50;99.90
23283;DHT22;11810;51.178;3.878;2023-06-26T10:12:44;27.40;99.90
23283;DHT22;11810;51.178;3.878;2023-06-26T10:15:11;26.70;99.90
23283;DHT22;11810;51.178;3.878;2023-06-26T10:17:42;26.30;99.90
23283;DHT22;11810;51.178;3.878;2023-06-26T10:20:10;25.20;99.90
23283;DHT22;11810;51.178;3.878;2023-06-26T10:22:42;24.90;99.90
23283;DHT22;11810;51.178;3.878;2023-06-26T10:25:10;25.30;99.90
23283;DHT22;11810;51.178;3.878;2023-06-26T10:27:44;25.80;99.90
23283;DHT22;11810;51.178;3.878;2023-06-26T10:30:14;26.20;99.90
23283;DHT22;11810;51.178;3.878;2023-06-26T10:32:41;26.70;99.90
23283;DHT22;11810;51.178;3.878;2023-06-26T10:35:08;27.00;99.90
23283;DHT22;11810;51.178;3.878;2023-06-26T10:38:02;26.50;99.90
23283;DHT22;11810;51.178;3.878;2023-06-26T10:40:46;26.20;99.90
23283;DHT22;11810;51.178;3.878;2023-06-26T10:43:14;25.00;99.90
23283;DHT22;11810;51.178;3.878;2023-06-26T10:45:48;25.10;99.90
23283;DHT22;11810;51.178;3.878;2023-06-26T10:48:18;25.60;99.90
23283;DHT22;11810;51.178;3.878;2023-06-26T10:50:48;25.70;99.90
23283;DHT22;11810;51.178;3.878;2023-06-26T10:55:54;27.50;99.90
23283;DHT22;11810;51.178;3.878;2023-06-26T11:01:25;26.80;99.90
23283;DHT22;11810;51.178;3.878;2023-06-26T11:06:29;25.50;99.90
23283;DHT22;11810;51.178;3.878;2023-06-26T11:14:21;28.20;99.90
23283;DHT22;11810;51.178;3.878;2023-06-26T11:16:48;26.80;99.90
23283;DHT22;11810;51.178;3.878;2023-06-26T11:19:16;25.90;99.90
23283;DHT22;11810;51.178;3.878;2023-06-26T11:21:42;25.30;99.90
23283;DHT22;11810;51.178;3.878;2023-06-26T11:24:09;26.10;99.90
23283;DHT22;11810;51.178;3.878;2023-06-26T11:26:39;26.40;99.90
23283;DHT22;11810;51.178;3.878;2023-06-26T11:29:05;26.90;99.90
23283;DHT22;11810;51.178;3.878;2023-06-26T11:31:33;27.80;99.90
23283;DHT22;11810;51.178;3.878;2023-06-26T11:34:01;28.40;99.90
23283;DHT22;11810;51.178;3.878;2023-06-26T11:36:27;28.60;99.90
23283;DHT22;11810;51.178;3.878;2023-06-26T11:39:02;28.90;99.90
23283;DHT22;11810;51.178;3.878;2023-06-26T11:41:30;29.30;99.90
23283;DHT22;11810;51.178;3.878;2023-06-26T11:44:03;29.20;99.90
23283;DHT22;11810;51.178;3.878;2023-06-26T11:46:30;27.80;99.90
23283;DHT22;11810;51.178;3.878;2023-06-26T11:48:57;27.00;99.90
23283;DHT22;11810;51.178;3.878;2023-06-26T11:51:23;26.70;99.90
23283;DHT22;11810;51.178;3.878;2023-06-26T11:53:49;26.70;99.90
23283;DHT22;11810;51.178;3.878;2023-06-26T11:56:17;27.50;99.90
23283;DHT22;11810;51.178;3.878;2023-06-26T11:59:05;28.50;99.90
23283;DHT22;11810;51.178;3.878;2023-06-26T12:01:38;28.50;99.90
23283;DHT22;11810;51.178;3.878;2023-06-26T12:04:07;29.30;99.90
23283;DHT22;11810;51.178;3.878;2023-06-26T12:06:38;29.70;99.90
23283;DHT22;11810;51.178;3.878;2023-06-26T12:09:07;29.20;99.90
23283;DHT22;11810;51.178;3.878;2023-06-26T12:11:37;28.20;99.90
23283;DHT22;11810;51.178;3.878;2023-06-26T12:14:05;28.40;99.90
23283;DHT22;11810;51.178;3.878;2023-06-26T12:16:33;29.00;99.90
23283;DHT22;11810;51.178;3.878;2023-06-26T12:19:01;28.80;99.80
23283;DHT22;11810;51.178;3.878;2023-06-26T12:24:16;27.30;99.90
23283;DHT22;11810;51.178;3.878;2023-06-26T12:26:53;26.70;99.90
23283;DHT22;11810;51.178;3.878;2023-06-26T12:29:20;26.80;99.90
23283;DHT22;11810;51.178;3.878;2023-06-26T12:31:52;27.40;99.90
23283;DHT22;11810;51.178;3.878;2023-06-26T12:34:27;27.80;99.90
23283;DHT22;11810;51.178;3.878;2023-06-26T12:36:53;28.80;99.90
23283;DHT22;11810;51.178;3.878;2023-06-26T12:39:20;28.60;99.90
23283;DHT22;11810;51.178;3.878;2023-06-26T12:41:52;28.80;99.90
23283;DHT22;11810;51.178;3.878;2023-06-26T12:44:29;29.00;99.10
23283;DHT22;11810;51.178;3.878;2023-06-26T12:47:02;28.20;99.50
23283;DHT22;11810;51.178;3.878;2023-06-26T12:49:35;27.70;99.90
23283;DHT22;11810;51.178;3.878;2023-06-26T12:52:07;27.70;99.90
23283;DHT22;11810;51.178;3.878;2023-06-26T12:54:34;28.40;99.90
23283;DHT22;11810;51.178;3.878;2023-06-26T12:57:00;28.10;99.90
23283;DHT22;11810;51.178;3.878;2023-06-26T12:59:26;28.10;99.90
23283;DHT22;11810;51.178;3.878;2023-06-26T13:01:52;28.50;99.90
23283;DHT22;11810;51.178;3.878;2023-06-26T13:04:18;28.10;99.90
23283;DHT22;11810;51.178;3.878;2023-06-26T13:06:44;28.60;99.90
23283;DHT22;11810;51.178;3.878;2023-06-26T13:09:11;29.40;99.90
23283;DHT22;11810;51.178;3.878;2023-06-26T13:11:38;30.20;99.70
23283;DHT22;11810;51.178;3.878;2023-06-26T13:14:04;30.10;97.50
23283;DHT22;11810;51.178;3.878;2023-06-26T13:16:30;30.20;97.70
23283;DHT22;11810;51.178;3.878;2023-06-26T13:18:58;30.30;98.40
23283;DHT22;11810;51.178;3.878;2023-06-26T13:21:24;30.20;98.30
23283;DHT22;11810;51.178;3.878;2023-06-26T13:23:50;30.40;97.20
23283;DHT22;11810;51.178;3.878;2023-06-26T13:26:16;30.70;97.20
23283;DHT22;11810;51.178;3.878;2023-06-26T13:28:42;30.60;95.30
23283;DHT22;11810;51.178;3.878;2023-06-26T13:31:08;30.20;95.90
23283;DHT22;11810;51.178;3.878;2023-06-26T13:33:34;30.00;96.70
23283;DHT22;11810;51.178;3.878;2023-06-26T13:36:00;30.30;96.20
23283;DHT22;11810;51.178;3.878;2023-06-26T13:38:27;30.20;96.70
23283;DHT22;11810;51.178;3.878;2023-06-26T13:40:53;30.10;97.50
23283;DHT22;11810;51.178;3.878;2023-06-26T13:43:21;29.90;98.00
23283;DHT22;11810;51.178;3.878;2023-06-26T13:45:48;29.60;96.50
23283;DHT22;11810;51.178;3.878;2023-06-26T13:48:14;29.00;97.30
23283;DHT22;11810;51.178;3.878;2023-06-26T13:50:41;28.80;97.60
23283;DHT22;11810;51.178;3.878;2023-06-26T13:53:06;28.70;98.00
23283;DHT22;11810;51.178;3.878;2023-06-26T13:55:34;27.60;97.50
23283;DHT22;11810;51.178;3.878;2023-06-26T13:58:00;27.30;99.10
23283;DHT22;11810;51.178;3.878;2023-06-26T14:00:29;26.90;99.90
23283;DHT22;11810;51.178;3.878;2023-06-26T14:02:55;27.00;99.90
23283;DHT22;11810;51.178;3.878;2023-06-26T14:05:22;28.00;99.90
23283;DHT22;11810;51.178;3.878;2023-06-26T14:07:48;28.60;99.90
23283;DHT22;11810;51.178;3.878;2023-06-26T14:10:14;28.70;99.90
23283;DHT22;11810;51.178;3.878;2023-06-26T14:12:41;28.70;99.00
23283;DHT22;11810;51.178;3.878;2023-06-26T14:15:07;28.60;98.60
23283;DHT22;11810;51.178;3.878;2023-06-26T14:17:33;28.40;99.30
23283;DHT22;11810;51.178;3.878;2023-06-26T14:19:59;28.10;99.90
23283;DHT22;11810;51.178;3.878;2023-06-26T14:22:25;28.40;99.90
23283;DHT22;11810;51.178;3.878;2023-06-26T14:24:51;28.30;99.70
23283;DHT22;11810;51.178;3.878;2023-06-26T14:27:17;28.30;99.90
23283;DHT22;11810;51.178;3.878;2023-06-26T14:29:43;28.40;99.10
23283;DHT22;11810;51.178;3.878;2023-06-26T14:32:09;27.60;97.50
23283;DHT22;11810;51.178;3.878;2023-06-26T14:34:35;27.80;98.90
23283;DHT22;11810;51.178;3.878;2023-06-26T14:37:01;28.00;99.90
23283;DHT22;11810;51.178;3.878;2023-06-26T14:39:27;28.10;99.90
23283;DHT22;11810;51.178;3.878;2023-06-26T14:41:53;28.30;99.90
23283;DHT22;11810;51.178;3.878;2023-06-26T14:44:19;28.40;99.80
23283;DHT22;11810;51.178;3.878;2023-06-26T14:46:44;28.40;99.90
23283;DHT22;11810;51.178;3.878;2023-06-26T14:49:10;28.10;99.90
23283;DHT22;11810;51.178;3.878;2023-06-26T14:51:36;27.90;99.90
23283;DHT22;11810;51.178;3.878;2023-06-26T14:54:05;27.90;99.90
23283;DHT22;11810;51.178;3.878;2023-06-26T14:56:31;27.70;99.90
23283;DHT22;11810;51.178;3.878;2023-06-26T14:58:58;27.60;99.90
23283;DHT22;11810;51.178;3.878;2023-06-26T15:01:23;27.40;99.90
23283;DHT22;11810;51.178;3.878;2023-06-26T15:03:50;27.50;99.90
23283;DHT22;11810;51.178;3.878;2023-06-26T15:06:15;27.40;99.90
23283;DHT22;11810;51.178;3.878;2023-06-26T15:08:41;27.40;99.90
23283;DHT22;11810;51.178;3.878;2023-06-26T15:11:07;27.40;99.90
23283;DHT22;11810;51.178;3.878;2023-06-26T15:13:33;27.30;99.90
23283;DHT22;11810;51.178;3.878;2023-06-26T15:15:59;26.90;99.90
23283;DHT22;11810;51.178;3.878;2023-06-26T15:18:25;26.70;99.90
23283;DHT22;11810;51.178;3.878;2023-06-26T15:20:51;27.00;99.90
23283;DHT22;11810;51.178;3.878;2023-06-26T15:23:17;26.90;99.90
23283;DHT22;11810;51.178;3.878;2023-06-26T15:25:43;26.50;99.90
23283;DHT22;11810;51.178;3.878;2023-06-26T15:28:09;26.00;99.90
23283;DHT22;11810;51.178;3.878;2023-06-26T15:30:35;26.20;99.90
23283;DHT22;11810;51.178;3.878;2023-06-26T15:33:01;26.10;99.90
23283;DHT22;11810;51.178;3.878;2023-06-26T15:35:27;26.10;99.90
23283;DHT22;11810;51.178;3.878;2023-06-26T15:37:53;26.00;99.90
23283;DHT22;11810;51.178;3.878;2023-06-26T15:40:18;25.60;99.90
23283;DHT22;11810;51.178;3.878;2023-06-26T15:42:46;25.30;99.90
23283;DHT22;11810;51.178;3.878;2023-06-26T15:45:13;25.20;99.90
23283;DHT22;11810;51.178;3.878;2023-06-26T15:47:40;25.10;99.90
23283;DHT22;11810;51.178;3.878;2023-06-26T15:50:07;25.10;99.90
23283;DHT22;11810;51.178;3.878;2023-06-26T15:52:33;25.20;99.90